Time;durP1;ratioP1;P1;durP2;ratioP2;P2;SDS_P1;SDS_P2;PMS_P1;PMS_P2;Temp;Humidity;BMP_temperature;BMP_pressure;BME280_temperature;BME280_humidity;BME280_pressure;Samples;Min_cycle;Max_cycle;Signal;HPM_P1;HPM_P2
2021/09/26 00:00:28;;;;;;;;;18.00;18.00;;;;;20.32;63.36;100631.47;5076220;28;47527;-83
2021/09/26 00:02:53;;;;;;;;;22.25;19.50;;;;;20.27;63.25;100623.13;5079343;27;45613;-83
2021/09/26 00:05:19;;;;;;;;;20.50;18.25;;;;;20.30;63.26;100624.59;5079283;27;45493;-86
2021/09/26 00:07:44;;;;;;;;;20.25;17.00;;;;;20.29;63.24;100636.28;5079818;27;45760;-79
2021/09/26 00:13:37;;;;;;;;;16.25;14.75;;;;;20.03;63.39;100608.06;5079175;28;46024;-80
2021/09/26 00:16:04;;;;;;;;;22.50;19.25;;;;;20.11;63.50;100626.66;5078569;28;45538;-82
2021/09/26 00:18:30;;;;;;;;;21.75;19.25;;;;;19.93;63.66;100603.94;5080756;28;45601;-78
2021/09/26 00:20:55;;;;;;;;;19.75;18.50;;;;;20.15;63.49;100643.13;5080162;28;46838;-78
2021/09/26 00:23:22;;;;;;;;;20.50;16.50;;;;;19.95;63.42;100607.25;5080658;28;46225;-81
2021/09/26 00:25:51;;;;;;;;;18.25;18.25;;;;;19.75;63.53;100584.69;5081333;27;45543;-81
2021/09/26 00:28:19;;;;;;;;;17.75;16.75;;;;;19.88;63.54;100606.25;5079977;28;45951;-79
2021/09/26 00:30:45;;;;;;;;;21.50;18.25;;;;;20.07;63.61;100643.16;5081365;27;46610;-78
2021/09/26 00:33:10;;;;;;;;;18.75;16.75;;;;;20.00;63.63;100628.84;5083873;27;45656;-82
2021/09/26 00:35:35;;;;;;;;;17.75;17.25;;;;;19.98;63.85;100629.00;5082847;28;45607;-79
2021/09/26 00:38:01;;;;;;;;;19.25;17.00;;;;;20.11;63.80;100666.56;5084758;28;45286;-83
2021/09/26 00:43:48;;;;;;;;;20.50;19.75;;;;;19.90;63.87;100637.03;5078501;28;45766;-81
2021/09/26 00:46:14;;;;;;;;;18.75;17.50;;;;;19.93;63.61;100647.31;5078441;28;45671;-83
2021/09/26 00:48:39;;;;;;;;;16.25;15.00;;;;;19.86;63.84;100632.22;5078347;27;45655;-80
2021/09/26 00:51:10;;;;;;;;;17.75;16.50;;;;;20.08;63.63;100669.56;5078211;28;45638;-87
2021/09/26 00:53:37;;;;;;;;;16.00;15.75;;;;;19.95;63.90;100636.50;5078408;28;45604;-83
2021/09/26 00:56:03;;;;;;;;;19.00;17.25;;;;;19.88;63.71;100639.00;5078217;28;45660;-84
2021/09/26 00:58:29;;;;;;;;;18.50;18.50;;;;;19.85;63.61;100617.25;5078056;27;45689;-80
2021/09/26 01:00:55;;;;;;;;;13.00;13.00;;;;;19.99;63.67;100638.66;5078564;27;45631;-82
2021/09/26 01:03:20;;;;;;;;;13.75;13.00;;;;;19.99;63.56;100633.34;5079042;27;46074;-79
2021/09/26 01:05:55;;;;;;;;;14.25;12.75;;;;;19.82;63.48;100613.09;5080398;27;45635;-82
2021/09/26 01:08:50;;;;;;;;;15.25;14.50;;;;;20.06;63.76;100652.13;5081102;27;45894;-87
2021/09/26 01:11:31;;;;;;;;;13.75;13.75;;;;;19.79;63.88;100621.41;5079445;27;46493;-79
2021/09/26 01:14:26;;;;;;;;;13.00;13.00;;;;;20.04;63.60;100654.09;5077802;28;46323;-84
2021/09/26 01:17:07;;;;;;;;;15.00;14.50;;;;;20.06;63.71;100662.75;5076203;28;45475;-80
2021/09/26 01:20:10;;;;;;;;;14.50;13.50;;;;;20.07;63.62;100656.44;5080718;27;45909;-85
2021/09/26 01:23:03;;;;;;;;;16.75;15.25;;;;;20.08;63.51;100658.91;5080580;28;45671;-80
2021/09/26 01:25:59;;;;;;;;;15.00;12.50;;;;;20.10;63.79;100677.38;5080302;27;45600;-77
2021/09/26 01:28:39;;;;;;;;;13.50;12.50;;;;;20.08;63.56;100671.41;5080370;28;45513;-82
2021/09/26 01:31:15;;;;;;;;;11.75;11.50;;;;;20.08;63.66;100682.84;5078364;28;45471;-82
2021/09/26 01:33:55;;;;;;;;;16.25;15.50;;;;;19.95;63.74;100665.78;5077450;27;46466;-80
2021/09/26 01:36:29;;;;;;;;;15.00;12.50;;;;;20.10;63.58;100691.50;5077542;27;47151;-81
2021/09/26 01:42:25;;;;;;;;;17.00;13.50;;;;;19.99;63.52;100675.91;5077495;28;45681;-82
2021/09/26 01:44:53;;;;;;;;;14.75;13.50;;;;;20.11;63.54;100693.19;5075869;28;47051;-79
2021/09/26 01:47:25;;;;;;;;;14.00;13.25;;;;;20.11;63.49;100687.84;5077321;27;46056;-82
2021/09/26 01:49:55;;;;;;;;;14.25;13.50;;;;;19.94;63.72;100651.63;5077359;28;45764;-79
2021/09/26 01:52:26;;;;;;;;;15.50;14.50;;;;;20.11;63.57;100685.19;5077316;27;45733;-80
2021/09/26 01:58:15;;;;;;;;;16.50;13.50;;;;;20.04;63.81;100668.25;5083512;28;45729;-79
2021/09/26 02:00:41;;;;;;;;;16.50;15.50;;;;;19.98;63.92;100658.28;5081641;28;45828;-79
2021/09/26 02:03:08;;;;;;;;;14.25;12.75;;;;;20.03;63.70;100661.25;5084536;27;45609;-79
2021/09/26 02:05:39;;;;;;;;;14.50;13.00;;;;;19.91;63.67;100646.66;5079177;28;45646;-80
2021/09/26 02:08:06;;;;;;;;;14.75;14.75;;;;;19.99;63.59;100670.56;5078714;27;46303;-83
2021/09/26 02:13:55;;;;;;;;;12.25;11.25;;;;;19.85;63.76;100641.19;5078633;28;45724;-81
2021/09/26 02:16:21;;;;;;;;;15.25;13.75;;;;;20.05;63.81;100674.41;5079541;27;45482;-85
2021/09/26 02:18:48;;;;;;;;;15.00;14.25;;;;;20.05;63.92;100677.06;5079734;27;46229;-79
2021/09/26 02:21:15;;;;;;;;;13.75;13.00;;;;;20.04;63.90;100681.53;5079836;28;45683;-82
2021/09/26 02:23:41;;;;;;;;;13.25;12.50;;;;;20.00;63.79;100676.72;5079502;27;45797;-88
2021/09/26 02:29:28;;;;;;;;;15.25;13.75;;;;;19.83;63.94;100640.50;5072570;28;46032;-84
2021/09/26 02:31:54;;;;;;;;;15.25;14.00;;;;;20.03;64.09;100671.91;5083715;28;45690;-88
2021/09/26 02:34:20;;;;;;;;;17.00;14.75;;;;;19.99;63.92;100664.44;5085976;27;45718;-88
2021/09/26 02:36:46;;;;;;;;;14.25;13.00;;;;;20.01;63.97;100668.59;5087475;27;45590;-89
2021/09/26 02:39:13;;;;;;;;;16.25;14.50;;;;;19.95;64.13;100658.63;5087460;27;45537;-88
2021/09/26 02:41:55;;;;;;;;;13.25;13.25;;;;;19.77;64.01;100620.75;5089830;27;45455;-93
2021/09/26 02:44:43;;;;;;;;;14.75;13.00;;;;;20.03;64.14;100669.22;5087017;27;45499;-85
2021/09/26 02:47:14;;;;;;;;;14.50;14.00;;;;;20.03;64.02;100663.91;5095227;27;47524;-82
2021/09/26 02:49:42;;;;;;;;;23.00;21.50;;;;;19.98;63.88;100655.63;5078853;27;46024;-92
2021/09/26 02:52:10;;;;;;;;;16.25;14.75;;;;;19.90;64.16;100631.69;5079720;27;45519;-85
2021/09/26 02:54:39;;;;;;;;;16.25;15.00;;;;;19.88;64.32;100635.50;5079000;28;45745;-83
2021/09/26 02:57:05;;;;;;;;;17.00;15.00;;;;;19.83;64.29;100630.72;5079053;27;46745;-82
2021/09/26 02:59:31;;;;;;;;;15.75;15.00;;;;;19.96;64.27;100662.94;5084654;27;46019;-87
2021/09/26 03:01:57;;;;;;;;;20.25;18.00;;;;;19.92;63.98;100650.97;5083905;27;45316;-83
2021/09/26 03:04:22;;;;;;;;;15.25;14.75;;;;;19.89;64.57;100650.47;5082048;27;45473;-85
2021/09/26 03:06:48;;;;;;;;;18.50;15.25;;;;;19.71;64.16;100624.06;5082136;27;46525;-82
2021/09/26 03:09:13;;;;;;;;;15.25;15.00;;;;;19.76;64.47;100631.56;5079267;28;46020;-79
2021/09/26 03:11:39;;;;;;;;;16.75;14.00;;;;;19.83;64.39;100654.63;5082899;27;45653;-84
2021/09/26 03:14:05;;;;;;;;;17.00;16.00;;;;;19.60;64.54;100605.78;5078507;28;45836;-85
2021/09/26 03:16:30;;;;;;;;;14.75;14.00;;;;;19.41;64.34;100569.75;5078976;27;45478;-83
2021/09/26 03:18:56;;;;;;;;;17.50;16.75;;;;;19.67;64.22;100612.94;5076495;28;46904;-78
2021/09/26 03:21:22;;;;;;;;;17.50;16.00;;;;;19.81;64.39;100623.91;5077769;27;45474;-88
2021/09/26 03:23:47;;;;;;;;;16.00;15.25;;;;;19.81;64.32;100624.72;5077181;28;45845;-81
2021/09/26 03:29:37;;;;;;;;;14.25;14.25;;;;;19.81;64.65;100599.97;5077386;28;45988;-86
2021/09/26 03:32:03;;;;;;;;;17.00;14.00;;;;;19.76;64.50;100603.13;5077820;27;45871;-85
2021/09/26 03:34:29;;;;;;;;;16.25;15.25;;;;;19.77;64.69;100603.94;5077652;27;45506;-82
2021/09/26 03:36:55;;;;;;;;;15.50;14.75;;;;;19.80;64.70;100615.09;5076122;27;45604;-82
2021/09/26 03:39:20;;;;;;;;;15.25;15.00;;;;;19.80;64.57;100628.41;5076500;27;46124;-81
2021/09/26 03:41:46;;;;;;;;;17.75;16.75;;;;;19.80;64.20;100630.22;5077766;27;45670;-81
2021/09/26 03:44:12;;;;;;;;;15.00;15.00;;;;;19.74;64.73;100623.75;5079388;28;45616;-79
2021/09/26 03:46:37;;;;;;;;;15.25;13.25;;;;;19.78;64.29;100627.72;5078610;27;45872;-82
2021/09/26 03:49:05;;;;;;;;;18.00;17.00;;;;;19.59;64.59;100591.69;5079180;27;45510;-88
2021/09/26 03:51:32;;;;;;;;;16.00;15.25;;;;;19.70;64.72;100609.94;5079599;27;45455;-87
2021/09/26 03:53:58;;;;;;;;;16.00;14.00;;;;;19.77;64.55;100625.22;5104050;27;45775;-81
2021/09/26 03:59:47;;;;;;;;;18.75;18.00;;;;;19.43;64.41;100564.28;5081022;28;45632;-92
2021/09/26 04:02:12;;;;;;;;;18.25;16.75;;;;;19.54;64.70;100587.88;5081030;27;45607;-86
2021/09/26 04:04:38;;;;;;;;;17.75;16.25;;;;;19.71;64.80;100616.09;5079887;27;45526;-85
2021/09/26 04:07:04;;;;;;;;;19.50;18.00;;;;;19.58;64.79;100605.16;5082366;28;47618;-79
2021/09/26 04:09:29;;;;;;;;;13.75;13.50;;;;;19.55;64.76;100579.72;5082620;27;45592;-81
2021/09/26 04:15:19;;;;;;;;;15.50;13.50;;;;;19.60;64.98;100584.53;5079795;28;45613;-80
2021/09/26 04:17:45;;;;;;;;;15.50;14.50;;;;;19.67;64.78;100604.97;5081261;27;45882;-80
2021/09/26 04:20:11;;;;;;;;;15.75;14.25;;;;;19.51;64.52;100581.06;5084902;28;45581;-82
2021/09/26 04:22:37;;;;;;;;;15.00;13.50;;;;;19.66;64.80;100607.78;5085861;27;45280;-83
2021/09/26 04:25:05;;;;;;;;;14.75;14.50;;;;;19.65;64.79;100601.63;5083741;28;45961;-80
2021/09/26 04:27:30;;;;;;;;;20.00;17.00;;;;;19.62;65.02;100593.19;5082698;27;47585;-79
2021/09/26 04:29:56;;;;;;;;;18.50;17.75;;;;;19.62;64.81;100601.97;5082994;27;45612;-80
2021/09/26 04:32:22;;;;;;;;;17.00;15.25;;;;;19.65;65.08;100598.16;5083106;27;45446;-81
2021/09/26 04:34:49;;;;;;;;;13.50;13.50;;;;;19.64;64.79;100600.00;5079376;28;45723;-80
2021/09/26 04:37:14;;;;;;;;;14.75;14.50;;;;;19.65;64.92;100584.84;5081229;28;47768;-84
2021/09/26 04:39:40;;;;;;;;;15.50;14.75;;;;;19.64;64.90;100580.56;5084186;28;45695;-83
2021/09/26 04:45:27;;;;;;;;;16.25;15.50;;;;;19.56;65.07;100570.75;5088186;28;45542;-86
2021/09/26 04:47:53;;;;;;;;;14.00;14.00;;;;;19.57;65.26;100575.06;5088518;27;45622;-79
2021/09/26 04:50:19;;;;;;;;;15.50;14.75;;;;;19.60;65.06;100588.03;5086005;27;45517;-79
2021/09/26 04:52:45;;;;;;;;;14.75;14.25;;;;;19.58;65.04;100579.41;5086815;27;45671;-78
2021/09/26 04:55:10;;;;;;;;;17.50;15.75;;;;;19.57;65.13;100583.06;5086225;27;45604;-77
2021/09/26 04:57:36;;;;;;;;;18.75;18.50;;;;;19.58;65.10;100587.38;5086040;27;45753;-83
2021/09/26 05:00:04;;;;;;;;;15.25;15.00;;;;;19.55;64.77;100587.69;5084106;27;45893;-79
2021/09/26 05:02:30;;;;;;;;;21.50;19.25;;;;;19.57;65.11;100595.50;5082194;27;45561;-80
2021/09/26 05:04:56;;;;;;;;;19.25;17.50;;;;;19.53;64.99;100603.00;5084399;27;45794;-79
2021/09/26 05:07:22;;;;;;;;;18.25;18.00;;;;;19.48;64.87;100600.00;5084385;27;45731;-81
2021/09/26 05:09:47;;;;;;;;;15.25;15.25;;;;;19.53;65.01;100612.78;5081567;27;46228;-82
2021/09/26 05:15:34;;;;;;;;;19.00;16.75;;;;;19.37;65.40;100600.31;5085565;28;45576;-80
2021/09/26 05:18:00;;;;;;;;;17.75;16.75;;;;;19.49;65.43;100620.25;5083371;27;45502;-80
2021/09/26 05:20:26;;;;;;;;;16.75;15.75;;;;;19.49;65.03;100630.88;5082859;27;45478;-82
2021/09/26 05:22:52;;;;;;;;;21.25;17.50;;;;;19.41;65.44;100614.09;5085679;27;45605;-88
2021/09/26 05:25:18;;;;;;;;;19.75;19.00;;;;;19.47;65.18;100632.06;5080360;27;45866;-85
2021/09/26 05:27:44;;;;;;;;;17.00;16.25;;;;;19.28;65.66;100610.09;5095876;27;48687;-89
2021/09/26 05:30:10;;;;;;;;;16.00;15.75;;;;;19.39;65.59;100646.13;5079535;27;46501;-83
2021/09/26 05:32:39;;;;;;;;;17.00;16.25;;;;;19.43;65.73;100660.78;5078601;27;45553;-87
2021/09/26 05:35:06;;;;;;;;;19.25;18.25;;;;;19.34;65.44;100650.28;5078407;27;45548;-87
2021/09/26 05:37:31;;;;;;;;;17.75;17.50;;;;;19.18;65.75;100620.03;5077256;27;47717;-79
2021/09/26 05:39:57;;;;;;;;;18.75;17.00;;;;;19.33;65.72;100646.78;5079090;27;45551;-82
2021/09/26 05:45:50;;;;;;;;;17.50;17.25;;;;;19.38;66.25;100662.25;5078251;28;45608;-84
2021/09/26 05:48:16;;;;;;;;;17.25;16.25;;;;;19.37;66.17;100665.91;5078747;27;46387;-84
2021/09/26 05:50:42;;;;;;;;;16.25;15.50;;;;;19.36;65.55;100665.06;5079050;27;46728;-82
2021/09/26 05:53:08;;;;;;;;;18.50;18.25;;;;;19.24;65.83;100647.78;5077368;27;45883;-82
2021/09/26 05:55:34;;;;;;;;;18.25;18.25;;;;;19.35;65.87;100675.84;5077589;27;45797;-79
2021/09/26 05:57:59;;;;;;;;;16.75;15.50;;;;;19.27;66.06;100674.84;5077401;27;45489;-84
2021/09/26 06:00:26;;;;;;;;;18.25;17.00;;;;;19.35;66.36;100689.97;5077567;27;46227;-86
2021/09/26 06:02:52;;;;;;;;;17.25;16.00;;;;;19.18;66.02;100675.81;5077276;27;45724;-83
2021/09/26 06:05:18;;;;;;;;;17.25;16.50;;;;;19.33;66.33;100704.41;5076416;28;45916;-80
2021/09/26 06:07:44;;;;;;;;;16.25;15.75;;;;;19.30;66.03;100697.59;5078335;27;45647;-84
2021/09/26 06:10:10;;;;;;;;;22.25;21.25;;;;;19.21;66.26;100685.31;5078608;27;45699;-82
2021/09/26 06:15:59;;;;;;;;;20.25;18.00;;;;;19.27;66.41;100696.09;5079991;28;45549;-83
2021/09/26 06:18:24;;;;;;;;;17.75;14.00;;;;;19.25;66.32;100692.78;5078902;27;46493;-83
2021/09/26 06:20:50;;;;;;;;;18.00;17.25;;;;;19.01;66.38;100666.16;5078858;27;46372;-78
2021/09/26 06:23:17;;;;;;;;;20.25;18.25;;;;;19.16;66.84;100698.25;5079358;27;45671;-83
2021/09/26 06:25:43;;;;;;;;;20.25;18.50;;;;;19.25;66.71;100710.53;5080465;27;45600;-84
2021/09/26 06:28:08;;;;;;;;;20.50;19.25;;;;;19.22;67.10;100709.03;5081248;27;45501;-78
2021/09/26 06:30:36;;;;;;;;;15.75;14.50;;;;;19.20;67.08;100712.84;5080408;27;45841;-81
2021/09/26 06:33:02;;;;;;;;;19.75;18.00;;;;;19.01;67.39;100684.75;5079835;27;45636;-80
2021/09/26 06:35:28;;;;;;;;;19.25;17.75;;;;;19.14;67.06;100709.03;5083248;28;45809;-80
2021/09/26 06:37:54;;;;;;;;;15.50;15.00;;;;;18.90;67.28;100678.88;5084301;27;45580;-79
2021/09/26 06:40:21;;;;;;;;;21.00;18.75;;;;;19.06;67.67;100716.13;5083178;27;45528;-79
2021/09/26 06:46:08;;;;;;;;;18.00;17.00;;;;;18.93;68.11;100708.63;5077328;28;45592;-81
2021/09/26 06:48:33;;;;;;;;;16.25;16.00;;;;;18.95;68.10;100719.91;5076338;27;46293;-80
2021/09/26 06:50:59;;;;;;;;;20.00;17.50;;;;;18.92;68.11;100714.09;5076081;27;46441;-77
2021/09/26 06:53:25;;;;;;;;;18.00;17.25;;;;;18.92;68.01;100730.03;5075325;27;45607;-78
2021/09/26 06:55:50;;;;;;;;;19.25;18.25;;;;;18.92;68.70;100740.63;5075967;27;45647;-79
2021/09/26 06:58:16;;;;;;;;;18.50;16.75;;;;;18.91;68.26;100742.47;5075512;27;46374;-83
2021/09/26 07:00:41;;;;;;;;;19.50;17.50;;;;;18.46;68.62;100663.13;5090962;27;48285;-79
2021/09/26 07:03:07;;;;;;;;;15.00;15.00;;;;;18.44;68.58;100657.94;5075292;27;45637;-79
2021/09/26 07:05:33;;;;;;;;;19.75;19.00;;;;;18.52;68.90;100669.56;5073693;27;45996;-79
2021/09/26 07:07:58;;;;;;;;;17.25;15.50;;;;;18.79;69.02;100714.53;5073186;28;46375;-85
2021/09/26 07:10:24;;;;;;;;;21.75;19.00;;;;;18.78;68.62;100711.06;5076018;27;46197;-86
2021/09/26 07:16:10;;;;;;;;;17.25;16.00;;;;;18.98;69.05;100747.97;5075299;28;45640;-86
2021/09/26 07:18:36;;;;;;;;;19.75;16.25;;;;;19.01;68.76;100750.28;5075673;27;46398;-89
2021/09/26 07:21:01;;;;;;;;;16.00;15.50;;;;;18.99;69.03;100745.16;5075605;27;46342;-89
2021/09/26 07:23:27;;;;;;;;;19.75;15.75;;;;;19.01;68.89;100737.84;5075035;27;45711;-78
2021/09/26 07:25:55;;;;;;;;;20.00;16.50;;;;;19.06;68.41;100732.88;5075064;27;45600;-78
2021/09/26 07:28:21;;;;;;;;;23.00;21.25;;;;;18.91;68.82;100701.78;5075824;28;45871;-80
2021/09/26 07:30:46;;;;;;;;;16.00;14.00;;;;;19.18;68.43;100750.19;5075039;27;45514;-89
2021/09/26 07:33:12;;;;;;;;;17.75;16.75;;;;;19.24;68.73;100748.72;5077171;27;45647;-83
2021/09/26 07:35:37;;;;;;;;;17.50;17.25;;;;;19.28;68.81;100758.03;5074856;28;45475;-83
2021/09/26 07:38:02;;;;;;;;;22.25;19.25;;;;;19.26;68.65;100752.91;5076341;27;46827;-82
2021/09/26 07:40:28;;;;;;;;;20.00;17.75;;;;;19.33;68.87;100757.53;5076515;27;47079;-81
2021/09/26 07:46:15;;;;;;;;;19.25;15.25;;;;;19.39;69.00;100781.66;5075650;28;45517;-80
2021/09/26 07:48:41;;;;;;;;;18.50;17.25;;;;;19.39;68.95;100780.81;5075890;27;46520;-79
2021/09/26 07:51:09;;;;;;;;;19.25;18.25;;;;;19.46;68.86;100787.19;5077301;27;45534;-81
2021/09/26 07:53:34;;;;;;;;;20.25;18.25;;;;;19.17;68.65;100740.56;5091614;27;45650;-85
2021/09/26 07:56:03;;;;;;;;;17.25;16.25;;;;;19.44;68.77;100771.38;5075921;27;45675;-80
2021/09/26 07:58:29;;;;;;;;;15.75;15.25;;;;;19.35;68.73;100751.09;5074550;27;45576;-79
2021/09/26 08:00:54;;;;;;;;;15.25;15.00;;;;;19.53;68.53;100781.06;5072755;28;48242;-78
2021/09/26 08:03:20;;;;;;;;;15.75;14.75;;;;;19.28;68.53;100736.78;5074211;27;45452;-82
2021/09/26 08:05:45;;;;;;;;;18.25;16.25;;;;;19.51;68.44;100772.41;5074571;27;45448;-83
2021/09/26 08:08:11;;;;;;;;;20.00;18.25;;;;;19.63;68.53;100788.91;5074263;27;45880;-80
2021/09/26 08:10:36;;;;;;;;;15.00;13.50;;;;;19.74;68.34;100801.06;5074363;27;46121;-80
2021/09/26 08:16:23;;;;;;;;;16.25;15.50;;;;;19.79;68.26;100793.41;5074313;28;45628;-82
2021/09/26 08:18:48;;;;;;;;;14.75;14.00;;;;;19.85;68.36;100792.75;5074161;27;45843;-80
2021/09/26 08:21:15;;;;;;;;;18.50;16.50;;;;;19.80;68.24;100782.63;5077106;27;46394;-80
2021/09/26 08:23:41;;;;;;;;;17.75;15.25;;;;;19.79;68.07;100772.13;5078045;28;45635;-80
2021/09/26 08:26:06;;;;;;;;;18.50;16.75;;;;;19.82;68.09;100779.78;5078327;28;45827;-82
2021/09/26 08:32:10;;;;;;;;;18.50;16.75;;;;;19.95;68.07;100796.94;5070866;28;47010;-81
2021/09/26 08:34:35;;;;;;;;;15.75;13.50;;;;;19.97;67.98;100797.56;5082063;28;45555;-84
2021/09/26 08:37:01;;;;;;;;;15.50;15.50;;;;;20.06;67.91;100812.56;5084599;27;45763;-82
2021/09/26 08:39:29;;;;;;;;;18.50;14.75;;;;;20.09;67.85;100819.38;5083383;27;45590;-81
2021/09/26 08:41:58;;;;;;;;;13.50;13.25;;;;;20.09;67.87;100811.38;5093385;27;46047;-79
2021/09/26 08:44:25;;;;;;;;;18.75;15.50;;;;;20.12;67.81;100803.09;5077602;28;45726;-81
2021/09/26 08:46:52;;;;;;;;;15.75;14.75;;;;;20.06;67.76;100785.97;5077858;27;45619;-80
2021/09/26 08:49:18;;;;;;;;;15.00;14.00;;;;;19.96;67.54;100768.50;5077832;28;46737;-80
2021/09/26 08:51:48;;;;;;;;;17.50;14.50;;;;;19.85;67.71;100744.88;5084157;28;47191;-81
2021/09/26 08:54:15;;;;;;;;;13.75;13.50;;;;;19.95;67.48;100765.00;5091549;27;45687;-80
2021/09/26 08:56:41;;;;;;;;;15.50;14.25;;;;;19.96;67.33;100755.19;5086095;28;45794;-81
2021/09/26 08:59:09;;;;;;;;;13.50;11.75;;;;;20.02;67.33;100766.00;5088762;27;46368;-81
2021/09/26 09:01:34;;;;;;;;;16.25;13.50;;;;;20.39;67.17;100809.94;5090047;28;45899;-80
2021/09/26 09:04:00;;;;;;;;;14.00;13.75;;;;;20.42;66.93;100809.59;5091000;27;45410;-80
2021/09/26 09:06:43;;;;;;;;;14.00;12.75;;;;;20.25;67.23;100774.13;5081359;28;45890;-81
2021/09/26 09:09:15;;;;;;;;;14.75;13.50;;;;;20.48;67.17;100808.91;5077287;27;46301;-83
2021/09/26 09:12:02;;;;;;;;;16.00;14.50;;;;;20.48;67.06;100807.09;5078564;27;45535;-84
2021/09/26 09:14:48;;;;;;;;;13.50;12.25;;;;;20.55;67.14;100801.94;5110888;27;44954;-82
2021/09/26 09:17:37;;;;;;;;;14.00;12.25;;;;;20.59;67.04;100808.56;5092193;27;45491;-83
2021/09/26 09:20:20;;;;;;;;;13.75;11.75;;;;;20.46;67.00;100782.47;5085124;28;45778;-81
2021/09/26 09:22:51;;;;;;;;;12.00;12.00;;;;;20.64;66.74;100800.91;5081596;27;46698;-79
2021/09/26 09:25:49;;;;;;;;;13.50;10.50;;;;;20.71;66.53;100799.25;5100768;27;45844;-81
2021/09/26 09:28:21;;;;;;;;;11.00;10.25;;;;;20.60;66.46;100775.63;5081388;28;45589;-81
2021/09/26 09:30:52;;;;;;;;;13.75;11.75;;;;;20.80;66.71;100805.38;5075065;28;45899;-81
2021/09/26 09:33:20;;;;;;;;;12.25;10.50;;;;;20.82;66.72;100804.22;5058144;28;46430;-81
2021/09/26 09:35:51;;;;;;;;;12.00;11.50;;;;;20.88;66.17;100797.38;5057765;28;45759;-80
2021/09/26 09:38:28;;;;;;;;;13.75;11.75;;;;;20.97;66.32;100812.31;5057418;28;45852;-80
2021/09/26 09:41:04;;;;;;;;;13.00;12.25;;;;;20.93;66.07;100806.50;5074811;28;45914;-81
2021/09/26 09:43:30;;;;;;;;;10.25;9.00;;;;;21.04;65.91;100815.13;5074115;28;46161;-80
2021/09/26 09:46:02;;;;;;;;;12.25;11.00;;;;;21.03;65.98;100808.13;5074620;27;45593;-81
2021/09/26 09:48:31;;;;;;;;;11.00;10.75;;;;;20.94;65.86;100780.72;5074762;28;45771;-81
2021/09/26 09:51:11;;;;;;;;;13.25;12.00;;;;;21.10;65.45;100809.13;5074783;28;46480;-85
2021/09/26 09:53:41;;;;;;;;;9.25;9.25;;;;;21.23;65.40;100814.75;5076177;28;46396;-80
2021/09/26 09:56:06;;;;;;;;;10.75;10.00;;;;;21.28;65.69;100809.72;5057314;28;45792;-81
2021/09/26 09:58:35;;;;;;;;;10.00;9.50;;;;;21.32;65.34;100824.41;5074213;28;45673;-82
2021/09/26 10:01:03;;;;;;;;;11.50;10.25;;;;;21.25;64.79;100808.25;5074547;28;46369;-83
2021/09/26 10:03:39;;;;;;;;;10.50;10.25;;;;;21.34;65.47;100809.03;5061859;28;47951;-82
2021/09/26 10:06:25;;;;;;;;;12.50;11.00;;;;;21.32;65.01;100800.41;5077212;28;45692;-83
2021/09/26 10:08:53;;;;;;;;;9.00;8.75;;;;;21.43;65.09;100817.84;5077121;28;45646;-81
2021/09/26 10:11:19;;;;;;;;;9.25;9.00;;;;;21.35;64.93;100800.03;5076821;28;45553;-81
2021/09/26 10:13:47;;;;;;;;;12.75;12.00;;;;;21.45;64.76;100821.97;5074855;28;47223;-81
2021/09/26 10:16:14;;;;;;;;;12.50;11.00;;;;;21.40;64.72;100813.69;5076272;27;45637;-82
2021/09/26 10:18:43;;;;;;;;;12.00;11.00;;;;;21.35;65.02;100803.53;5077023;27;45701;-80
2021/09/26 10:21:11;;;;;;;;;14.25;11.75;;;;;21.43;64.47;100807.97;5076044;27;45580;-78
2021/09/26 10:23:41;;;;;;;;;13.25;10.50;;;;;21.57;64.84;100817.94;5075586;27;46182;-77
2021/09/26 10:26:07;;;;;;;;;11.75;11.00;;;;;21.53;64.47;100813.13;5076075;27;45572;-79
2021/09/26 10:28:34;;;;;;;;;11.75;10.00;;;;;21.63;64.74;100821.72;5076122;28;45699;-79
2021/09/26 10:31:03;;;;;;;;;14.50;11.25;;;;;21.61;64.54;100819.22;5075526;28;46648;-79
2021/09/26 10:33:30;;;;;;;;;12.00;10.75;;;;;21.68;64.17;100822.88;5075952;27;46157;-76
2021/09/26 10:35:58;;;;;;;;;13.00;11.00;;;;;21.71;64.35;100811.00;5075771;28;45692;-80
2021/09/26 10:38:25;;;;;;;;;12.00;10.75;;;;;21.74;64.14;100822.16;5076151;27;45774;-83
2021/09/26 10:40:51;;;;;;;;;9.50;9.00;;;;;21.64;64.35;100792.22;5076359;27;46642;-79
2021/09/26 10:43:21;;;;;;;;;12.50;10.00;;;;;21.79;63.92;100821.63;5075589;27;47097;-79
2021/09/26 10:45:48;;;;;;;;;9.75;8.00;;;;;21.80;64.18;100820.63;5077256;27;45662;-79
2021/09/26 10:48:15;;;;;;;;;10.50;9.00;;;;;21.80;63.81;100814.47;5077638;27;45550;-79
2021/09/26 10:50:42;;;;;;;;;9.00;9.00;;;;;21.64;63.94;100784.22;5075905;27;45655;-80
2021/09/26 10:53:10;;;;;;;;;13.25;11.00;;;;;21.89;63.81;100818.72;5076098;27;46100;-80
2021/09/26 10:55:37;;;;;;;;;14.00;13.50;;;;;21.83;64.03;100803.44;5076486;27;45828;-79
2021/09/26 10:58:05;;;;;;;;;10.50;10.50;;;;;21.94;63.57;100814.56;5094272;27;45757;-79
2021/09/26 11:00:52;;;;;;;;;10.00;9.00;;;;;21.98;63.46;100815.84;5078165;28;46586;-79
2021/09/26 11:03:33;;;;;;;;;23.00;20.25;;;;;21.99;63.24;100809.50;5074989;28;46010;-79
2021/09/26 11:05:58;;;;;;;;;14.50;12.50;;;;;22.05;63.66;100807.97;5075271;27;45863;-81
2021/09/26 11:08:23;;;;;;;;;13.00;10.75;;;;;22.09;63.43;100802.09;5075139;28;45717;-82
2021/09/26 11:10:59;;;;;;;;;14.00;12.75;;;;;22.13;62.99;100802.59;5074907;27;46471;-81
2021/09/26 11:13:28;;;;;;;;;16.25;13.25;;;;;22.18;63.53;100792.19;5074485;27;46562;-80
2021/09/26 11:16:14;;;;;;;;;16.00;12.75;;;;;22.22;63.35;100785.47;5074860;27;45774;-84
2021/09/26 11:18:50;;;;;;;;;14.00;11.50;;;;;22.26;62.75;100784.09;5075397;27;45662;-83
2021/09/26 11:21:42;;;;;;;;;15.25;12.75;;;;;22.29;63.05;100790.94;5077786;28;46342;-79
2021/09/26 11:24:10;;;;;;;;;15.00;12.25;;;;;22.33;62.46;100794.91;5079211;28;46206;-83
2021/09/26 11:27:00;;;;;;;;;12.75;11.25;;;;;22.38;62.52;100787.19;5077696;27;45671;-83
2021/09/26 11:29:38;;;;;;;;;9.50;8.00;;;;;22.44;62.83;100781.94;5075892;28;45675;-78
2021/09/26 11:32:16;;;;;;;;;9.50;8.00;;;;;22.42;62.18;100770.59;5074935;27;45964;-80
2021/09/26 11:34:43;;;;;;;;;8.50;8.00;;;;;22.55;62.42;100775.34;5075641;27;46324;-77
2021/09/26 11:37:11;;;;;;;;;11.25;10.25;;;;;22.51;62.05;100768.72;5077113;27;45775;-80
2021/09/26 11:39:38;;;;;;;;;10.00;9.00;;;;;22.62;61.70;100772.75;5078039;27;45580;-79
2021/09/26 11:42:32;;;;;;;;;11.75;9.00;;;;;22.66;61.68;100772.22;5074869;27;45730;-79
2021/09/26 11:45:00;;;;;;;;;8.50;8.00;;;;;22.70;61.99;100773.50;5075271;28;46077;-77
2021/09/26 11:47:26;;;;;;;;;9.25;8.75;;;;;22.69;61.60;100760.31;5075040;28;45601;-81
2021/09/26 11:49:52;;;;;;;;;10.00;9.25;;;;;22.77;61.50;100757.59;5074664;27;45733;-79
2021/09/26 11:52:23;;;;;;;;;8.75;8.00;;;;;22.79;61.37;100758.22;5074850;27;46874;-79
2021/09/26 11:54:58;;;;;;;;;11.75;9.00;;;;;22.84;61.66;100763.84;5074497;27;46795;-80
2021/09/26 11:57:24;;;;;;;;;8.75;8.00;;;;;22.87;61.19;100766.16;5075042;27;45634;-81
2021/09/26 11:59:49;;;;;;;;;10.50;8.00;;;;;22.87;61.57;100750.13;5074711;28;45659;-81
2021/09/26 12:02:16;;;;;;;;;8.25;8.00;;;;;22.88;60.90;100751.78;5074468;27;45719;-78
2021/09/26 12:04:43;;;;;;;;;14.50;13.25;;;;;22.90;60.83;100739.06;5074305;27;45984;-79
2021/09/26 12:07:10;;;;;;;;;11.75;11.00;;;;;22.99;61.53;100745.97;5074694;28;45553;-79
2021/09/26 12:09:45;;;;;;;;;10.25;9.75;;;;;23.01;60.80;100752.78;5074915;27;45575;-80
2021/09/26 12:12:15;;;;;;;;;10.25;10.25;;;;;23.05;60.82;100750.56;5074287;27;46522;-81
2021/09/26 12:14:44;;;;;;;;;11.00;10.00;;;;;23.08;60.71;100749.38;5074075;27;46163;-82
2021/09/26 12:17:13;;;;;;;;;10.75;10.25;;;;;23.11;61.52;100747.13;5074710;27;45558;-81